Time;durP1;ratioP1;P1;durP2;ratioP2;P2;SDS_P1;SDS_P2;PMS_P1;PMS_P2;Temp;Humidity;BMP_temperature;BMP_pressure;BME280_temperature;BME280_humidity;BME280_pressure;Samples;Min_cycle;Max_cycle;Signal;HPM_P1;HPM_P2
2021/06/16 01:07:24;;;;;;;11.03;3.17;;;;;;;10.96;70.46;101721.22;1727804;81;21038;-91
2021/06/16 01:09:58;;;;;;;19.73;2.90;;;;;;;10.94;70.68;101715.39;1708569;84;21053;-90
2021/06/16 01:12:45;;;;;;;7.75;3.00;;;;;;;10.92;70.78;101717.97;1709282;84;21882;-89
2021/06/16 01:15:20;;;;;;;10.53;3.37;;;;;;;10.91;70.83;101716.19;1738145;81;21099;-88
2021/06/16 01:17:53;;;;;;;9.03;3.53;;;;;;;10.87;71.02;101713.84;1769455;81;21063;-91
2021/06/16 01:20:43;;;;;;;8.00;3.22;;;;;;;10.88;71.18;101719.58;1768953;80;21072;-89
2021/06/16 01:23:18;;;;;;;8.83;2.72;;;;;;;10.87;71.34;101719.55;1770191;80;21074;-92
2021/06/16 01:26:13;;;;;;;13.00;4.15;;;;;;;10.86;71.48;101722.58;1769842;80;22593;-90
2021/06/16 01:28:43;;;;;;;7.85;3.02;;;;;;;10.87;71.66;101732.72;1770142;81;21051;-90
2021/06/16 01:31:11;;;;;;;9.05;2.70;;;;;;;10.87;71.78;101740.61;1770059;80;21031;-90
2021/06/16 01:33:38;;;;;;;7.60;2.90;;;;;;;10.85;71.87;101727.80;1733187;82;21049;-90
2021/06/16 01:36:06;;;;;;;8.73;3.00;;;;;;;10.87;72.03;101730.08;1770038;81;21031;-89
2021/06/16 01:38:32;;;;;;;10.38;3.05;;;;;;;10.85;72.13;101726.06;1773641;80;21748;-90
2021/06/16 01:41:00;;;;;;;8.65;2.92;;;;;;;10.85;72.30;101729.13;1769385;80;21099;-91
2021/06/16 01:43:30;;;;;;;7.12;2.87;;;;;;;10.84;72.38;101726.00;1774087;80;21040;-94
2021/06/16 01:46:06;;;;;;;6.67;2.80;;;;;;;10.87;72.49;101727.45;1725117;81;21047;-93
2021/06/16 01:48:33;;;;;;;7.05;3.27;;;;;;;10.85;72.66;101725.17;1770324;80;21549;-93
2021/06/16 01:54:59;;;;;;;9.63;3.00;;;;;;;10.86;72.81;101725.20;1769708;81;20972;-94
2021/06/16 01:57:29;;;;;;;11.08;3.10;;;;;;;10.88;72.99;101716.94;1770497;80;21489;-94
2021/06/16 01:59:59;;;;;;;8.75;3.45;;;;;;;10.89;73.08;101716.55;1774414;80;21066;-94
2021/06/16 02:02:30;;;;;;;11.68;3.83;;;;;;;10.78;73.17;101696.80;1749336;81;21764;-91
2021/06/16 02:04:58;;;;;;;6.00;3.08;;;;;;;10.91;73.22;101720.14;1770292;80;21774;-91
2021/06/16 02:07:27;;;;;;;7.67;3.80;;;;;;;10.91;73.29;101718.82;1774214;80;21533;-92
2021/06/16 02:09:54;;;;;;;6.92;3.80;;;;;;;10.92;73.38;101714.44;1770107;80;21059;-93
2021/06/16 02:12:21;;;;;;;8.63;3.42;;;;;;;10.91;73.42;101714.87;1770393;80;21216;-92
2021/06/16 02:14:58;;;;;;;10.72;3.47;;;;;;;10.92;73.54;101716.65;1774184;80;21509;-91
2021/06/16 02:17:29;;;;;;;8.90;3.47;;;;;;;10.93;73.63;101718.45;1769378;80;21015;-91
2021/06/16 02:19:58;;;;;;;8.73;3.65;;;;;;;10.95;73.66;101720.73;1769486;80;21067;-91
2021/06/16 02:22:28;;;;;;;9.88;3.35;;;;;;;10.97;73.73;101725.64;1769833;81;21019;-90
2021/06/16 02:25:00;;;;;;;15.00;3.55;;;;;;;10.97;73.83;101718.16;1770126;80;21082;-91
2021/06/16 02:27:28;;;;;;;5.73;2.90;;;;;;;10.99;73.97;101722.64;1770823;80;21039;-94
2021/06/16 02:34:00;;;;;;;9.70;3.17;;;;;;;11.04;74.03;101721.52;1770918;81;21074;-95
2021/06/16 02:36:30;;;;;;;10.15;3.33;;;;;;;11.09;74.08;101725.20;1724597;81;21087;-93
2021/06/16 02:39:08;;;;;;;9.28;3.45;;;;;;;11.13;74.09;101722.27;1749366;80;21007;-94
2021/06/16 02:45:36;;;;;;;9.50;3.33;;;;;;;11.20;74.13;101720.35;1770206;81;20999;-94
2021/06/16 02:48:04;;;;;;;8.08;3.62;;;;;;;11.24;74.12;101719.62;1770596;80;21032;-94
2021/06/16 02:50:34;;;;;;;6.72;3.08;;;;;;;11.28;74.12;101725.09;1770167;80;21031;-94
2021/06/16 02:53:07;;;;;;;10.68;3.37;;;;;;;11.33;74.13;101729.20;1770605;80;21105;-94
2021/06/16 02:55:40;;;;;;;6.00;2.60;;;;;;;11.41;74.16;101732.12;1768126;81;20980;-94
2021/06/16 02:58:09;;;;;;;8.48;3.40;;;;;;;11.48;74.17;101732.83;1773762;80;21052;-94
2021/06/16 03:00:39;;;;;;;10.68;4.03;;;;;;;11.44;74.14;101699.29;1774550;80;21019;-94
2021/06/16 03:03:06;;;;;;;8.28;3.12;;;;;;;11.65;74.17;101726.85;1770263;80;21071;-93
2021/06/16 03:05:33;;;;;;;11.63;3.15;;;;;;;11.64;74.14;101708.82;1770869;80;21078;-93
2021/06/16 03:08:00;;;;;;;8.60;2.92;;;;;;;11.82;74.09;101728.77;1770146;81;21015;-91
2021/06/16 03:10:29;;;;;;;10.15;3.25;;;;;;;11.92;74.05;101728.70;1769831;81;22002;-91
2021/06/16 03:12:59;;;;;;;8.23;2.77;;;;;;;12.02;73.99;101733.05;1770048;80;21090;-93
2021/06/16 03:15:26;;;;;;;8.75;3.25;;;;;;;12.14;73.93;101742.23;1769573;80;21078;-91
2021/06/16 03:17:53;;;;;;;8.08;2.47;;;;;;;12.23;73.87;101739.48;1747047;81;21153;-91
2021/06/16 03:20:25;;;;;;;8.10;3.17;;;;;;;12.37;73.91;101738.64;1769202;80;21015;-90
2021/06/16 03:22:55;;;;;;;9.55;2.90;;;;;;;12.53;73.81;101737.39;1732499;82;21116;-91
2021/06/16 03:25:24;;;;;;;7.50;3.22;;;;;;;12.73;73.79;101734.52;1769885;81;21068;-91
2021/06/16 03:27:52;;;;;;;7.83;2.62;;;;;;;12.99;73.74;101728.73;1748907;81;21004;-91
2021/06/16 03:30:24;;;;;;;8.68;2.45;;;;;;;13.55;74.84;101728.22;1770479;80;21103;-94
2021/06/16 03:32:53;;;;;;;6.12;2.55;;;;;;;15.44;76.94;101732.41;1768454;80;21027;-94
2021/06/16 03:35:20;;;;;;;8.98;2.27;;;;;;;17.03;73.36;101721.51;1769707;80;21893;-91
2021/06/16 03:37:51;;;;;;;6.00;2.00;;;;;;;18.51;72.50;101721.82;1765991;81;21050;-91
2021/06/16 03:40:21;;;;;;;7.22;2.45;;;;;;;19.06;68.25;101719.98;1800681;79;21020;-92
2021/06/16 03:42:49;;;;;;;7.47;2.77;;;;;;;18.66;65.81;101720.59;1802477;79;21027;-94
2021/06/16 03:45:51;;;;;;;11.80;2.80;;;;;;;18.22;65.15;101723.77;1800067;79;21031;-92
2021/06/16 03:48:35;;;;;;;4.10;2.02;;;;;;;18.10;65.20;101725.02;1767288;80;21051;-94
2021/06/16 03:51:07;;;;;;;8.75;2.85;;;;;;;19.01;66.45;101722.61;1772733;80;21605;-85
2021/06/16 03:53:33;;;;;;;9.28;3.40;;;;;;;20.59;65.35;101718.14;1738942;81;21066;-90
2021/06/16 03:56:00;;;;;;;6.95;2.60;;;;;;;21.80;63.73;101722.69;1769244;80;21027;-89
2021/06/16 03:58:27;;;;;;;9.10;3.08;;;;;;;23.29;62.46;101724.05;1769161;80;21058;-88
2021/06/16 04:01:20;;;;;;;9.30;3.02;;;;;;;24.64;60.43;101719.39;1769515;81;21905;-92
2021/06/16 04:03:52;;;;;;;6.65;2.70;;;;;;;25.67;57.63;101727.68;1669208;85;21084;-90
2021/06/16 04:06:19;;;;;;;7.00;2.98;;;;;;;26.90;56.52;101701.72;1625990;86;21102;-82
2021/06/16 04:08:46;;;;;;;5.65;2.77;;;;;;;28.66;54.79;101721.48;1627359;87;21810;-82
2021/06/16 04:11:13;;;;;;;6.87;2.72;;;;;;;29.98;52.13;101723.80;1658222;85;21176;-81
2021/06/16 04:13:41;;;;;;;5.95;2.65;;;;;;;31.01;50.02;101728.94;1629963;87;21718;-82
2021/06/16 04:16:09;;;;;;;6.05;2.42;;;;;;;32.10;48.30;101737.41;1673962;85;21150;-82
2021/06/16 04:18:39;;;;;;;7.05;2.33;;;;;;;33.17;46.67;101738.73;1673303;85;21055;-84
2021/06/16 04:21:05;;;;;;;7.22;2.70;;;;;;;33.98;44.25;101736.05;1672827;85;21596;-84
2021/06/16 04:23:34;;;;;;;19.32;3.87;;;;;;;34.23;42.33;101735.51;1673169;85;21486;-85
2021/06/16 04:26:01;;;;;;;8.95;4.30;;;;;;;34.80;41.58;101736.19;1672846;85;22526;-85
2021/06/16 04:28:27;;;;;;;6.92;2.98;;;;;;;35.41;39.99;101736.45;1671877;85;21145;-85
2021/06/16 04:30:54;;;;;;;6.33;2.60;;;;;;;35.97;38.90;101734.25;1673725;85;21105;-85
2021/06/16 04:33:21;;;;;;;6.20;2.20;;;;;;;36.35;37.34;101738.51;1676774;85;21107;-85
2021/06/16 04:35:48;;;;;;;4.87;2.62;;;;;;;36.78;36.61;101739.67;1674300;85;21095;-78
2021/06/16 04:38:18;;;;;;;6.70;2.35;;;;;;;37.09;34.99;101735.23;1664795;85;21766;-86
2021/06/16 04:40:44;;;;;;;5.58;1.87;;;;;;;37.25;34.31;101738.66;1703275;79;21258;-87
2021/06/16 04:43:11;;;;;;;4.78;1.85;;;;;;;37.33;33.72;101737.59;1765924;79;21035;-85
2021/06/16 04:45:43;;;;;;;5.42;2.70;;;;;;;37.88;33.18;101735.90;1762830;79;21039;-89
2021/06/16 04:48:12;;;;;;;5.30;2.22;;;;;;;38.36;32.03;101735.93;1796163;79;21063;-84
2021/06/16 04:50:39;;;;;;;4.67;2.00;;;;;;;38.68;31.56;101738.06;1767383;81;21824;-87
2021/06/16 04:53:05;;;;;;;5.90;2.83;;;;;;;38.99;30.89;101731.52;1766169;81;20981;-90
2021/06/16 04:55:37;;;;;;;6.05;2.10;;;;;;;38.74;29.37;101729.31;1745809;81;21007;-90
2021/06/16 04:58:06;;;;;;;5.92;2.55;;;;;;;37.92;29.01;101736.08;1768503;81;21239;-90
2021/06/16 05:00:39;;;;;;;4.22;1.90;;;;;;;37.51;29.01;101726.27;1765669;80;21059;-90
2021/06/16 05:03:05;;;;;;;8.05;2.17;;;;;;;37.64;28.92;101740.02;1767679;81;22576;-91
2021/06/16 05:05:32;;;;;;;7.80;2.47;;;;;;;38.01;28.52;101738.13;1768968;81;21627;-91
2021/06/16 05:07:59;;;;;;;4.90;2.12;;;;;;;38.41;27.89;101739.72;1793886;79;21039;-91
2021/06/16 05:10:26;;;;;;;4.20;2.10;;;;;;;38.71;27.25;101737.84;1799580;79;21247;-91
2021/06/16 05:12:53;;;;;;;6.85;3.45;;;;;;;38.92;26.83;101735.25;1800973;79;21996;-91
2021/06/16 05:15:20;;;;;;;6.45;2.33;;;;;;;39.25;26.31;101735.81;1800926;79;22643;-91
2021/06/16 05:17:46;;;;;;;4.22;2.10;;;;;;;39.65;25.87;101734.44;1801226;79;21047;-90
2021/06/16 05:20:14;;;;;;;4.90;2.52;;;;;;;39.85;25.02;101739.16;1799014;79;21067;-91
2021/06/16 05:22:41;;;;;;;8.20;2.47;;;;;;;39.68;24.81;101737.42;1801168;79;21647;-91
2021/06/16 05:25:10;;;;;;;7.60;2.40;;;;;;;40.04;24.80;101739.02;1800420;79;21042;-91
2021/06/16 05:27:37;;;;;;;7.28;2.52;;;;;;;40.32;24.11;101740.76;1801157;79;22270;-91
2021/06/16 05:30:05;;;;;;;5.53;2.27;;;;;;;40.44;23.89;101744.39;1801682;79;20997;-91
2021/06/16 05:32:32;;;;;;;5.78;2.02;;;;;;;40.84;23.61;101739.03;1801807;79;21084;-91
2021/06/16 05:35:02;;;;;;;7.75;4.00;;;;;;;41.00;22.96;101737.18;1800054;79;21036;-91
2021/06/16 05:37:27;;;;;;;4.50;2.40;;;;;;;41.00;22.50;101741.32;1801359;79;21076;-91
2021/06/16 05:39:54;;;;;;;5.00;2.92;;;;;;;40.97;22.12;101741.58;1801487;79;21774;-91
2021/06/16 05:42:21;;;;;;;4.37;2.40;;;;;;;40.69;22.01;101745.36;1801458;79;21035;-91
2021/06/16 05:44:48;;;;;;;7.67;2.77;;;;;;;38.95;21.19;101746.50;1801242;79;21537;-91
2021/06/16 05:47:14;;;;;;;4.58;2.40;;;;;;;36.04;21.58;101744.28;1800427;79;21024;-91
2021/06/16 05:49:41;;;;;;;6.78;2.83;;;;;;;33.21;22.91;101746.67;1801566;79;20984;-91
2021/06/16 05:52:10;;;;;;;14.50;3.55;;;;;;;31.22;24.36;101759.70;1800720;79;21003;-92
2021/06/16 05:54:39;;;;;;;8.00;2.77;;;;;;;29.59;25.34;101756.48;1800254;79;21307;-91
2021/06/16 05:57:06;;;;;;;4.97;2.62;;;;;;;28.21;26.48;101760.00;1801598;79;21039;-92
2021/06/16 05:59:33;;;;;;;9.18;2.80;;;;;;;26.89;27.48;101764.77;1801241;79;21030;-91
2021/06/16 06:02:01;;;;;;;8.63;3.83;;;;;;;25.57;28.41;101765.63;1801838;79;21659;-92
2021/06/16 06:04:28;;;;;;;8.83;3.02;;;;;;;24.32;29.76;101772.83;1801386;79;21811;-92
2021/06/16 06:06:55;;;;;;;6.85;2.47;;;;;;;23.59;31.22;101771.13;1801590;79;21537;-92
2021/06/16 06:09:22;;;;;;;8.25;2.75;;;;;;;23.00;32.29;101771.36;1766182;79;21067;-92
2021/06/16 06:11:49;;;;;;;5.67;2.62;;;;;;;22.50;33.04;101781.65;1753363;81;21511;-92
2021/06/16 06:14:16;;;;;;;10.25;5.92;;;;;;;21.95;34.01;101782.89;1753550;80;21139;-92
2021/06/16 06:16:43;;;;;;;6.62;2.92;;;;;;;21.54;34.59;101792.90;1754235;80;21720;-92
2021/06/16 06:19:10;;;;;;;10.08;2.33;;;;;;;21.03;35.02;101785.44;1753744;81;21048;-92
2021/06/16 06:21:36;;;;;;;7.83;2.20;;;;;;;20.63;35.80;101789.50;1753807;81;21356;-92
2021/06/16 06:24:04;;;;;;;4.58;2.62;;;;;;;20.23;36.33;101784.52;1753780;81;20997;-92
2021/06/16 06:26:33;;;;;;;8.05;2.40;;;;;;;19.98;37.27;101791.15;1753992;81;21072;-92
2021/06/16 06:29:00;;;;;;;4.62;1.75;;;;;;;19.85;37.72;101784.88;1753183;81;22620;-92
2021/06/16 06:31:27;;;;;;;5.08;1.95;;;;;;;19.80;38.35;101783.95;1754115;81;21060;-92
2021/06/16 06:33:55;;;;;;;6.30;3.52;;;;;;;19.77;38.79;101783.97;1732329;81;21060;-92
2021/06/16 06:36:23;;;;;;;5.83;2.35;;;;;;;19.76;39.27;101785.75;1753622;81;21075;-91
2021/06/16 06:38:50;;;;;;;6.90;1.90;;;;;;;19.69;39.24;101794.59;1753703;81;21071;-92
2021/06/16 06:41:17;;;;;;;5.55;2.10;;;;;;;19.67;39.86;101799.45;1732239;81;21727;-92
2021/06/16 06:43:44;;;;;;;7.95;1.87;;;;;;;19.68;39.96;101794.12;1753542;81;21463;-92
2021/06/16 06:46:12;;;;;;;10.45;2.10;;;;;;;19.53;39.46;101799.41;1754047;81;21008;-92
2021/06/16 06:48:39;;;;;;;6.58;1.50;;;;;;;19.33;39.36;101793.95;1753625;81;21044;-92
2021/06/16 06:51:05;;;;;;;6.30;2.55;;;;;;;19.14;39.62;101791.17;1753731;81;21665;-91
2021/06/16 06:53:32;;;;;;;7.17;2.35;;;;;;;18.98;39.70;101789.31;1753821;81;21722;-91
2021/06/16 06:55:59;;;;;;;5.90;2.10;;;;;;;18.89;39.95;101792.80;1753733;81;21509;-91
2021/06/16 06:58:26;;;;;;;6.92;1.70;;;;;;;18.88;40.29;101781.66;1753778;81;21106;-91
2021/06/16 07:00:53;;;;;;;10.72;3.37;;;;;;;18.94;40.48;101788.81;1753700;81;21553;-92
2021/06/16 07:03:21;;;;;;;7.15;2.05;;;;;;;19.03;40.60;101788.46;1753383;81;21581;-92
2021/06/16 07:05:50;;;;;;;6.92;2.00;;;;;;;19.09;40.61;101784.02;1753306;81;21055;-92
2021/06/16 07:08:17;;;;;;;11.30;2.25;;;;;;;19.14;40.82;101781.83;1753030;80;21076;-91
2021/06/16 07:10:43;;;;;;;5.08;1.80;;;;;;;19.21;40.64;101789.00;1752961;81;21028;-91
2021/06/16 07:13:10;;;;;;;5.05;2.40;;;;;;;19.27;40.63;101791.27;1753930;81;21020;-91
2021/06/16 07:15:37;;;;;;;7.05;1.82;;;;;;;19.31;40.54;101793.94;1753158;81;21504;-90
2021/06/16 07:18:04;;;;;;;4.92;2.02;;;;;;;19.36;40.62;101790.86;1753491;81;22499;-91
2021/06/16 07:20:31;;;;;;;7.87;2.62;;;;;;;19.37;40.54;101791.33;1753490;80;21079;-91
2021/06/16 07:22:58;;;;;;;5.72;2.87;;;;;;;19.39;40.66;101799.35;1753826;80;21056;-91
2021/06/16 07:25:25;;;;;;;3.40;1.72;;;;;;;19.33;40.40;101796.20;1753471;81;21586;-90
2021/06/16 07:27:51;;;;;;;7.87;1.80;;;;;;;19.26;40.44;101790.38;1753355;81;21609;-90
2021/06/16 07:30:21;;;;;;;5.87;2.00;;;;;;;19.29;40.62;101783.70;1752561;81;22642;-90
2021/06/16 07:32:48;;;;;;;6.12;1.80;;;;;;;19.34;40.69;101790.42;1753601;80;21572;-90
2021/06/16 07:35:15;;;;;;;5.72;1.80;;;;;;;19.40;40.83;101789.98;1753738;81;21087;-90
2021/06/16 07:37:41;;;;;;;5.83;1.82;;;;;;;19.46;40.93;101786.91;1753538;81;21004;-90
2021/06/16 07:40:09;;;;;;;3.50;2.00;;;;;;;19.50;40.84;101785.61;1753687;81;21028;-90
2021/06/16 07:42:37;;;;;;;9.50;2.30;;;;;;;19.52;40.70;101791.85;1753890;81;22400;-90
2021/06/16 07:45:06;;;;;;;12.25;2.75;;;;;;;19.49;40.70;101794.50;1753869;81;21076;-90
2021/06/16 07:47:32;;;;;;;5.67;2.47;;;;;;;19.42;40.84;101796.67;1753706;81;21055;-91
2021/06/16 07:49:59;;;;;;;8.68;4.28;;;;;;;19.43;40.89;101797.14;1753718;81;21702;-90
2021/06/16 07:52:27;;;;;;;7.65;3.35;;;;;;;19.36;40.78;101795.32;1753707;81;21040;-90
2021/06/16 07:54:55;;;;;;;6.22;2.25;;;;;;;19.36;40.90;101799.33;1753623;81;21853;-90
2021/06/16 07:57:22;;;;;;;4.10;2.17;;;;;;;19.34;40.83;101792.64;1753481;81;21033;-90
2021/06/16 07:59:48;;;;;;;7.80;5.15;;;;;;;19.26;40.92;101790.80;1753703;81;21020;-90
2021/06/16 08:02:15;;;;;;;8.13;5.25;;;;;;;19.28;41.17;101800.62;1753716;81;21075;-90
2021/06/16 08:04:42;;;;;;;10.70;2.45;;;;;;;19.27;41.06;101799.27;1753063;81;21024;-90
2021/06/16 08:07:11;;;;;;;11.00;4.20;;;;;;;19.26;40.86;101802.81;1753517;81;21736;-91
2021/06/16 08:09:42;;;;;;;10.18;4.92;;;;;;;19.29;40.97;101805.51;1786841;79;21012;-91
2021/06/16 08:12:10;;;;;;;5.22;2.70;;;;;;;19.31;40.98;101801.95;1789044;79;21089;-91
2021/06/16 08:14:37;;;;;;;6.42;1.62;;;;;;;19.35;41.07;101809.53;1807536;79;21079;-91
2021/06/16 08:17:04;;;;;;;14.13;3.35;;;;;;;19.41;40.94;101812.27;1808118;79;21062;-91
2021/06/16 08:19:32;;;;;;;4.67;2.33;;;;;;;19.45;41.12;101807.84;1807559;79;21735;-92
2021/06/16 08:21:59;;;;;;;5.20;1.90;;;;;;;19.53;40.97;101818.11;1807387;79;21024;-91
2021/06/16 08:24:26;;;;;;;11.03;2.20;;;;;;;19.59;41.02;101820.80;1807729;79;21322;-91
2021/06/16 08:26:53;;;;;;;6.75;2.00;;;;;;;19.67;41.05;101816.41;1807623;79;21055;-92
2021/06/16 08:29:20;;;;;;;5.83;1.92;;;;;;;19.72;40.84;101817.32;1807507;79;21059;-91
2021/06/16 08:31:52;;;;;;;8.78;2.58;;;;;;;19.70;40.65;101810.17;1807426;79;21711;-91
2021/06/16 08:34:20;;;;;;;5.72;2.17;;;;;;;19.69;40.66;101816.38;1808460;79;22106;-91
2021/06/16 08:36:47;;;;;;;5.17;2.12;;;;;;;19.68;40.50;101813.28;1807646;79;21003;-91
2021/06/16 08:39:14;;;;;;;7.53;1.72;;;;;;;19.65;40.46;101818.14;1807252;79;21035;-91
2021/06/16 08:41:41;;;;;;;3.75;1.87;;;;;;;19.65;40.53;101815.92;1807423;79;21553;-87
2021/06/16 08:44:08;;;;;;;9.30;2.17;;;;;;;19.75;40.69;101811.12;1807349;79;21392;-91
2021/06/16 08:46:35;;;;;;;9.23;4.40;;;;;;;19.90;40.79;101803.16;1807255;79;21026;-91
2021/06/16 08:49:05;;;;;;;10.38;2.35;;;;;;;20.05;40.70;101801.42;1807473;79;21023;-91
2021/06/16 08:51:36;;;;;;;11.18;2.10;;;;;;;20.16;40.63;101797.88;1807463;79;21110;-91
2021/06/16 08:54:03;;;;;;;19.12;2.62;;;;;;;20.26;40.38;101805.92;1807506;79;21018;-91
2021/06/16 08:56:30;;;;;;;6.62;2.15;;;;;;;20.34;40.47;101805.48;1807299;79;21758;-90
2021/06/16 08:58:56;;;;;;;9.33;3.40;;;;;;;20.46;40.33;101803.25;1807433;79;21067;-91
2021/06/16 09:01:23;;;;;;;12.55;7.25;;;;;;;20.59;40.80;101817.11;1807253;79;21050;-91
2021/06/16 09:03:50;;;;;;;12.90;6.00;;;;;;;20.59;40.98;101807.30;1808265;79;21062;-91
2021/06/16 09:06:17;;;;;;;8.15;3.47;;;;;;;20.62;40.96;101807.76;1807967;79;21380;-90
2021/06/16 09:09:02;;;;;;;10.10;2.98;;;;;;;20.54;41.05;101801.49;1807426;79;21749;-90
2021/06/16 09:11:47;;;;;;;5.65;2.87;;;;;;;20.36;41.33;101811.72;1781681;79;21055;-91
2021/06/16 09:14:18;;;;;;;8.48;3.75;;;;;;;20.10;41.60;101808.57;1801519;79;21121;-91
2021/06/16 09:16:45;;;;;;;7.12;2.87;;;;;;;19.95;41.76;101815.18;1801765;79;21055;-91
2021/06/16 09:19:26;;;;;;;10.08;2.95;;;;;;;19.85;41.90;101817.39;1801703;79;21102;-91
2021/06/16 09:22:06;;;;;;;10.40;2.77;;;;;;;19.75;42.30;101823.14;1801760;79;21750;-91
2021/06/16 09:24:50;;;;;;;9.98;4.95;;;;;;;19.72;42.71;101818.66;1801599;79;21096;-91
2021/06/16 09:27:46;;;;;;;7.87;3.70;;;;;;;19.77;42.94;101808.01;1801740;79;21027;-91
2021/06/16 09:30:24;;;;;;;7.25;3.47;;;;;;;19.80;43.17;101816.02;1801313;79;21067;-90
2021/06/16 09:32:58;;;;;;;12.78;2.87;;;;;;;19.79;43.28;101813.80;1801464;79;21066;-91
2021/06/16 09:35:36;;;;;;;7.83;2.83;;;;;;;19.73;43.23;101816.91;1801257;79;21744;-91
2021/06/16 09:38:07;;;;;;;7.20;2.87;;;;;;;19.64;43.48;101819.50;1799934;79;21105;-91
2021/06/16 09:40:39;;;;;;;11.12;4.53;;;;;;;19.60;43.74;101818.14;1804489;79;21015;-91
2021/06/16 09:43:13;;;;;;;8.25;3.70;;;;;;;19.60;43.85;101811.46;1801570;79;21044;-88
2021/06/16 09:45:44;;;;;;;11.22;2.77;;;;;;;19.73;43.97;101808.89;1800352;79;36314;-90
2021/06/16 09:48:40;;;;;;;10.95;3.37;;;;;;;19.85;44.01;101815.59;1801882;79;21456;-91
2021/06/16 09:51:28;;;;;;;12.05;3.40;;;;;;;19.93;43.93;101817.88;1800072;79;21055;-91
2021/06/16 09:54:14;;;;;;;8.65;3.35;;;;;;;19.97;43.87;101814.73;1800216;79;20988;-91
2021/06/16 09:56:46;;;;;;;9.05;3.27;;;;;;;19.85;44.10;101806.70;1801448;79;21442;-90
2021/06/16 09:59:13;;;;;;;14.38;4.17;;;;;;;19.77;44.17;101816.02;1801449;79;21059;-90
2021/06/16 10:01:46;;;;;;;9.45;2.77;;;;;;;19.64;44.19;101812.83;1800574;79;21745;-90
2021/06/16 10:04:42;;;;;;;7.55;3.42;;;;;;;19.50;44.32;101812.31;1803061;79;21047;-90
2021/06/16 10:07:16;;;;;;;10.05;2.98;;;;;;;19.42;44.49;101807.36;1801247;79;21330;-90
2021/06/16 10:10:09;;;;;;;8.20;2.90;;;;;;;19.39;44.74;101806.03;1800129;79;21046;-90
2021/06/16 10:12:42;;;;;;;7.07;2.90;;;;;;;19.41;45.25;101803.80;1801700;79;21524;-92
2021/06/16 10:15:15;;;;;;;9.00;2.70;;;;;;;19.50;45.21;101814.06;1801764;79;22384;-89
2021/06/16 10:17:43;;;;;;;;;;;;;;;19.56;45.33;101806.11;1804259;79;21604;-89
2021/06/16 10:20:11;;;;;;;14.30;3.35;;;;;;;19.64;45.29;101808.81;1801382;79;20209;-89
2021/06/16 10:22:37;;;;;;;8.75;3.02;;;;;;;19.67;45.33;101803.47;1801779;79;21034;-92
2021/06/16 10:25:06;;;;;;;8.73;2.95;;;;;;;19.73;45.36;101804.88;1801733;79;21214;-91
2021/06/16 10:27:55;;;;;;;8.23;3.20;;;;;;;19.83;45.42;101812.48;1801295;79;22409;-91
2021/06/16 10:30:24;;;;;;;8.93;3.15;;;;;;;19.85;45.28;101808.92;1801183;79;21074;-92
2021/06/16 10:32:51;;;;;;;9.43;2.77;;;;;;;19.90;45.34;101815.18;1801392;79;21047;-91
2021/06/16 10:35:35;;;;;;;9.40;2.60;;;;;;;19.79;45.04;101815.13;1801472;79;21050;-91
2021/06/16 10:38:12;;;;;;;7.87;2.92;;;;;;;19.75;45.21;101826.70;1800714;79;20995;-91
2021/06/16 10:40:52;;;;;;;14.80;4.05;;;;;;;19.71;44.92;101818.19;1799980;79;21747;-91
2021/06/16 10:43:28;;;;;;;10.43;3.00;;;;;;;19.59;44.96;101812.33;1801747;79;21027;-92
2021/06/16 10:46:04;;;;;;;6.85;2.60;;;;;;;19.55;45.00;101830.56;1801822;79;21118;-91
2021/06/16 10:48:44;;;;;;;8.10;2.42;;;;;;;19.47;45.09;101816.30;1801508;79;21055;-91
2021/06/16 10:51:33;;;;;;;10.15;3.22;;;;;;;19.53;45.32;101814.98;1794680;79;21589;-91
2021/06/16 10:54:22;;;;;;;7.60;3.42;;;;;;;19.60;45.39;101823.48;1802289;79;21718;-91
2021/06/16 10:56:59;;;;;;;7.80;3.42;;;;;;;19.53;45.54;101824.78;1796864;79;20936;-91
2021/06/16 10:59:50;;;;;;;7.12;2.42;;;;;;;19.50;45.63;101818.08;1801538;79;21075;-91
2021/06/16 11:02:18;;;;;;;12.43;2.98;;;;;;;19.52;45.93;101821.64;1801565;79;21031;-91
2021/06/16 11:04:45;;;;;;;10.08;2.80;;;;;;;19.52;46.04;101827.90;1802358;79;21008;-91
2021/06/16 11:07:36;;;;;;;8.13;2.45;;;;;;;19.51;46.34;101822.09;1801873;79;21792;-91
2021/06/16 11:10:05;;;;;;;6.35;2.80;;;;;;;19.54;46.30;101814.53;1783850;79;21530;-92
2021/06/16 11:12:42;;;;;;;8.50;3.00;;;;;;;19.57;46.42;101819.45;1753083;81;21076;-91
2021/06/16 11:15:25;;;;;;;7.30;2.70;;;;;;;19.56;46.55;101820.80;1748686;81;21061;-91
2021/06/16 11:17:53;;;;;;;7.72;2.55;;;;;;;19.57;46.64;101824.79;1754196;80;21083;-90
2021/06/16 11:20:28;;;;;;;6.17;2.67;;;;;;;19.55;46.61;101821.67;1753443;81;21747;-91
2021/06/16 11:23:01;;;;;;;10.05;2.40;;;;;;;19.47;46.85;101824.30;1753400;80;21088;-91
2021/06/16 11:25:41;;;;;;;11.75;6.72;;;;;;;19.57;47.00;101829.24;1753192;80;21048;-91
2021/06/16 11:28:18;;;;;;;10.55;2.77;;;;;;;19.58;46.92;101835.94;1754438;80;21119;-91
2021/06/16 11:30:52;;;;;;;6.67;2.58;;;;;;;19.58;46.87;101825.70;1753641;81;21087;-91
2021/06/16 11:33:28;;;;;;;10.48;2.98;;;;;;;19.60;47.00;101825.27;1754159;80;21907;-91
2021/06/16 11:36:05;;;;;;;6.03;2.50;;;;;;;19.68;47.07;101819.50;1753894;80;21558;-90
2021/06/16 11:38:56;;;;;;;8.28;3.47;;;;;;;19.70;46.97;101831.53;1752958;81;21538;-91
2021/06/16 11:41:25;;;;;;;9.75;2.80;;;;;;;19.71;47.22;101827.55;1754682;81;21063;-91
2021/06/16 11:44:09;;;;;;;9.08;3.02;;;;;;;19.81;47.26;101828.50;1753650;81;21131;-90
2021/06/16 11:46:39;;;;;;;10.15;2.60;;;;;;;19.84;46.87;101823.19;1753513;81;22525;-91
2021/06/16 11:49:17;;;;;;;12.68;3.83;;;;;;;19.85;46.75;101822.28;1731624;80;21066;-90
2021/06/16 11:51:58;;;;;;;6.67;2.75;;;;;;;19.80;46.74;101825.36;1734530;80;21106;-91
2021/06/16 11:54:43;;;;;;;5.40;2.50;;;;;;;19.88;46.72;101824.09;1706153;81;21094;-86
2021/06/16 11:57:14;;;;;;;;;;;;;;;19.86;46.60;101817.40;1717895;80;21020;-92
2021/06/16 11:59:51;;;;;;;9.80;3.00;;;;;;;19.85;46.54;101818.72;1736439;80;21809;-90
2021/06/16 12:02:28;;;;;;;11.73;3.75;;;;;;;19.82;46.48;101807.59;1746321;81;21769;-90
2021/06/16 12:05:08;;;;;;;7.20;2.22;;;;;;;19.78;46.48;101815.12;1717866;81;21094;-90
2021/06/16 12:08:00;;;;;;;13.10;3.00;;;;;;;19.75;46.48;101815.12;1749548;80;21092;-90
2021/06/16 12:10:34;;;;;;;6.37;2.65;;;;;;;19.81;46.71;101814.69;1772055;79;21525;-87
2021/06/16 12:13:06;;;;;;;7.58;3.00;;;;;;;19.85;46.57;101808.03;1792313;78;21976;-90
2021/06/16 12:15:36;;;;;;;7.75;2.70;;;;;;;19.92;46.70;101805.38;1781031;79;21652;-90
2021/06/16 12:18:10;;;;;;;9.58;2.62;;;;;;;20.03;46.62;101807.19;1785114;79;21051;-90
2021/06/16 12:20:52;;;;;;;5.78;2.70;;;;;;;20.05;46.50;101806.32;1783848;79;21023;-90
2021/06/16 12:23:28;;;;;;;12.18;2.83;;;;;;;20.10;46.49;101809.91;1776529;79;21050;-90
2021/06/16 12:26:25;;;;;;;5.40;2.58;;;;;;;20.15;46.36;101800.09;1774589;79;21750;-90
2021/06/16 12:28:57;;;;;;;5.25;2.55;;;;;;;20.11;46.10;101800.98;1787881;79;21509;-90
2021/06/16 12:31:28;;;;;;;7.20;2.80;;;;;;;20.13;46.19;101796.52;1777890;79;21059;-90
2021/06/16 12:36:35;;;;;;;8.73;2.83;;;;;;;20.07;46.22;101795.19;1772748;79;21080;-90
2021/06/16 12:39:10;;;;;;;7.65;2.72;;;;;;;20.08;46.33;101801.41;1775323;79;21766;-90
2021/06/16 12:41:54;;;;;;;10.72;3.70;;;;;;;20.17;46.45;101802.77;1773990;79;20997;-90
2021/06/16 12:44:35;;;;;;;7.53;2.85;;;;;;;20.15;46.05;101813.45;1775703;79;21393;-90
2021/06/16 12:47:12;;;;;;;11.03;3.50;;;;;;;19.98;46.27;101810.73;1775605;78;21047;-91
2021/06/16 12:49:50;;;;;;;9.38;2.17;;;;;;;19.91;46.31;101802.70;1768210;79;21063;-91
2021/06/16 12:52:34;;;;;;;6.35;2.52;;;;;;;19.92;46.59;101797.82;1773400;79;21874;-90
2021/06/16 12:55:12;;;;;;;;;;;;;;;20.00;46.48;101802.28;1778807;79;21017;-89
2021/06/16 12:57:54;;;;;;;6.28;2.42;;;;;;;20.00;46.43;101798.27;1766275;79;20204;-91
2021/06/16 13:00:35;;;;;;;11.40;2.75;;;;;;;19.99;46.39;101791.61;1754685;79;21434;-91
2021/06/16 13:03:14;;;;;;;10.03;3.17;;;;;;;19.90;46.48;101772.87;1756349;79;20989;-91
2021/06/16 13:05:42;;;;;;;9.00;3.08;;;;;;;20.03;46.41;101787.14;1776768;79;21074;-91